sensor_id;sensor_type;location;lat;lon;timestamp;pressure;altitude;pressure_sealevel;temperature;humidity
9281;BME280;4679;47.966;7.958;2023-01-30T07:04:01;97869.13;;;-2.34;78.51
9281;BME280;4679;47.966;7.958;2023-01-30T07:06:03;97866.13;;;-2.30;78.42
9281;BME280;4679;47.966;7.958;2023-01-30T07:08:05;97855.53;;;-2.28;78.20
9281;BME280;4679;47.966;7.958;2023-01-30T07:10:11;97851.03;;;-2.26;78.04
9281;BME280;4679;47.966;7.958;2023-01-30T07:12:13;97859.78;;;-2.27;78.13
9281;BME280;4679;47.966;7.958;2023-01-30T07:14:15;97860.59;;;-2.27;78.71
9281;BME280;4679;47.966;7.958;2023-01-30T07:16:17;97867.59;;;-2.27;77.83
9281;BME280;4679;47.966;7.958;2023-01-30T07:18:18;97849.94;;;-2.24;78.37
9281;BME280;4679;47.966;7.958;2023-01-30T07:20:21;97841.03;;;-2.21;77.80
9281;BME280;4679;47.966;7.958;2023-01-30T07:22:23;97826.41;;;-2.22;78.07
9281;BME280;4679;47.966;7.958;2023-01-30T07:24:25;97817.78;;;-2.23;78.22
9281;BME280;4679;47.966;7.958;2023-01-30T07:26:26;97818.59;;;-2.22;77.80
9281;BME280;4679;47.966;7.958;2023-01-30T07:28:30;97816.13;;;-2.24;78.35
9281;BME280;4679;47.966;7.958;2023-01-30T07:30:33;97821.19;;;-2.22;78.46
9281;BME280;4679;47.966;7.958;2023-01-30T07:32:35;97816.53;;;-2.19;78.08
9281;BME280;4679;47.966;7.958;2023-01-30T07:34:37;97801.28;;;-2.14;78.18
9281;BME280;4679;47.966;7.958;2023-01-30T07:36:40;97813.19;;;-2.11;78.30
9281;BME280;4679;47.966;7.958;2023-01-30T07:38:42;97830.28;;;-2.08;78.12
9281;BME280;4679;47.966;7.958;2023-01-30T07:40:43;97822.88;;;-2.03;77.46
9281;BME280;4679;47.966;7.958;2023-01-30T07:42:55;97841.06;;;-2.03;77.85
9281;BME280;4679;47.966;7.958;2023-01-30T07:44:57;97845.44;;;-2.04;77.54
9281;BME280;4679;47.966;7.958;2023-01-30T07:46:58;97841.19;;;-2.05;78.11
9281;BME280;4679;47.966;7.958;2023-01-30T07:49:00;97855.16;;;-2.06;78.14
9281;BME280;4679;47.966;7.958;2023-01-30T07:51:02;97848.31;;;-2.07;78.13
9281;BME280;4679;47.966;7.958;2023-01-30T07:53:06;97842.16;;;-2.06;77.59
9281;BME280;4679;47.966;7.958;2023-01-30T07:55:08;97847.38;;;-2.06;78.18
9281;BME280;4679;47.966;7.958;2023-01-30T07:57:10;97849.16;;;-2.06;78.04
9281;BME280;4679;47.966;7.958;2023-01-30T07:59:12;97854.06;;;-2.03;78.12
9281;BME280;4679;47.966;7.958;2023-01-30T08:01:13;97866.78;;;-2.00;77.86
9281;BME280;4679;47.966;7.958;2023-01-30T08:03:16;97879.63;;;-1.99;77.91
9281;BME280;4679;47.966;7.958;2023-01-30T08:05:17;97893.81;;;-1.93;78.03
9281;BME280;4679;47.966;7.958;2023-01-30T08:07:19;97902.22;;;-1.82;77.80
9281;BME280;4679;47.966;7.958;2023-01-30T08:09:22;97893.03;;;-1.76;77.64
9281;BME280;4679;47.966;7.958;2023-01-30T08:11:24;97903.28;;;-1.74;77.16
9281;BME280;4679;47.966;7.958;2023-01-30T08:13:25;97895.34;;;-1.73;77.76
9281;BME280;4679;47.966;7.958;2023-01-30T08:15:27;97880.25;;;-1.69;77.70
9281;BME280;4679;47.966;7.958;2023-01-30T08:17:31;97881.56;;;-1.65;77.56
9281;BME280;4679;47.966;7.958;2023-01-30T08:19:33;97881.81;;;-1.59;77.27
9281;BME280;4679;47.966;7.958;2023-01-30T08:21:35;97878.78;;;-1.54;77.42
9281;BME280;4679;47.966;7.958;2023-01-30T08:23:36;97885.00;;;-1.47;77.07
9281;BME280;4679;47.966;7.958;2023-01-30T08:25:39;97879.22;;;-1.41;77.37
9281;BME280;4679;47.966;7.958;2023-01-30T08:27:41;97881.06;;;-1.33;77.09
9281;BME280;4679;47.966;7.958;2023-01-30T08:29:43;97877.19;;;-1.29;77.14
9281;BME280;4679;47.966;7.958;2023-01-30T08:31:45;97880.16;;;-1.24;77.34
9281;BME280;4679;47.966;7.958;2023-01-30T08:33:47;97872.72;;;-1.19;77.09
9281;BME280;4679;47.966;7.958;2023-01-30T08:35:49;97868.84;;;-1.15;77.03
9281;BME280;4679;47.966;7.958;2023-01-30T08:37:50;97860.59;;;-1.11;76.81
9281;BME280;4679;47.966;7.958;2023-01-30T08:39:52;97862.72;;;-1.06;77.05
9281;BME280;4679;47.966;7.958;2023-01-30T08:41:55;97879.38;;;-0.99;77.32
9281;BME280;4679;47.966;7.958;2023-01-30T08:43:57;97880.75;;;-0.87;76.47
9281;BME280;4679;47.966;7.958;2023-01-30T08:45:59;97871.00;;;-0.85;76.89
9281;BME280;4679;47.966;7.958;2023-01-30T08:48:02;97869.75;;;-0.81;76.63
9281;BME280;4679;47.966;7.958;2023-01-30T08:50:04;97882.94;;;-0.74;76.62
9281;BME280;4679;47.966;7.958;2023-01-30T08:52:06;97880.72;;;-0.69;76.58
9281;BME280;4679;47.966;7.958;2023-01-30T08:54:08;97878.63;;;-0.65;76.57
9281;BME280;4679;47.966;7.958;2023-01-30T08:56:09;97883.34;;;-0.61;76.67
9281;BME280;4679;47.966;7.958;2023-01-30T08:58:12;97901.81;;;-0.54;76.48
9281;BME280;4679;47.966;7.958;2023-01-30T09:00:15;97909.84;;;-0.48;76.32
9281;BME280;4679;47.966;7.958;2023-01-30T09:02:17;97897.97;;;-0.42;76.38
9281;BME280;4679;47.966;7.958;2023-01-30T09:04:18;97894.06;;;-0.38;76.41
9281;BME280;4679;47.966;7.958;2023-01-30T09:06:20;97899.66;;;-0.33;76.20
9281;BME280;4679;47.966;7.958;2023-01-30T09:08:22;97902.75;;;-0.29;76.34
9281;BME280;4679;47.966;7.958;2023-01-30T09:10:23;97901.47;;;-0.25;76.24
9281;BME280;4679;47.966;7.958;2023-01-30T09:12:26;97908.69;;;-0.19;76.05
9281;BME280;4679;47.966;7.958;2023-01-30T09:14:29;97902.81;;;-0.13;76.00
9281;BME280;4679;47.966;7.958;2023-01-30T09:16:30;97905.63;;;-0.07;75.79
9281;BME280;4679;47.966;7.958;2023-01-30T09:18:32;97907.63;;;-0.01;75.70
9281;BME280;4679;47.966;7.958;2023-01-30T09:20:34;97914.94;;;0.04;75.71
9281;BME280;4679;47.966;7.958;2023-01-30T09:22:35;97913.50;;;0.10;75.71
9281;BME280;4679;47.966;7.958;2023-01-30T09:24:37;97894.78;;;0.14;75.56
9281;BME280;4679;47.966;7.958;2023-01-30T09:26:39;97888.75;;;0.22;75.52
9281;BME280;4679;47.966;7.958;2023-01-30T09:28:44;97886.34;;;0.28;75.64
9281;BME280;4679;47.966;7.958;2023-01-30T09:30:47;97878.00;;;0.33;75.66
9281;BME280;4679;47.966;7.958;2023-01-30T09:32:48;97889.13;;;0.35;75.28
9281;BME280;4679;47.966;7.958;2023-01-30T09:34:50;97884.25;;;0.40;75.14
9281;BME280;4679;47.966;7.958;2023-01-30T09:36:52;97879.19;;;0.47;75.39
9281;BME280;4679;47.966;7.958;2023-01-30T09:38:53;97874.78;;;0.55;75.63
9281;BME280;4679;47.966;7.958;2023-01-30T09:41:15;97858.47;;;0.61;74.97
9281;BME280;4679;47.966;7.958;2023-01-30T09:43:33;97851.78;;;0.67;75.18
9281;BME280;4679;47.966;7.958;2023-01-30T09:45:43;97860.94;;;0.71;74.93
9281;BME280;4679;47.966;7.958;2023-01-30T09:47:52;97861.44;;;0.75;74.83
9281;BME280;4679;47.966;7.958;2023-01-30T09:50:05;97860.25;;;0.77;75.67
9281;BME280;4679;47.966;7.958;2023-01-30T09:52:23;97864.19;;;0.81;74.86
9281;BME280;4679;47.966;7.958;2023-01-30T09:54:29;97866.31;;;0.86;74.65
9281;BME280;4679;47.966;7.958;2023-01-30T09:56:31;97862.72;;;0.87;74.61
9281;BME280;4679;47.966;7.958;2023-01-30T09:58:41;97866.31;;;0.86;74.55
9281;BME280;4679;47.966;7.958;2023-01-30T10:00:45;97856.53;;;0.88;74.53
9281;BME280;4679;47.966;7.958;2023-01-30T10:02:55;97842.34;;;0.90;74.40
9281;BME280;4679;47.966;7.958;2023-01-30T10:04:59;97851.81;;;0.91;74.16
9281;BME280;4679;47.966;7.958;2023-01-30T10:07:12;97859.13;;;0.96;74.58
9281;BME280;4679;47.966;7.958;2023-01-30T10:09:25;97860.44;;;1.00;74.66
9281;BME280;4679;47.966;7.958;2023-01-30T10:11:40;97853.91;;;1.04;73.93
9281;BME280;4679;47.966;7.958;2023-01-30T10:13:55;97864.66;;;1.09;74.08
9281;BME280;4679;47.966;7.958;2023-01-30T10:16:04;97858.78;;;1.15;74.35
9281;BME280;4679;47.966;7.958;2023-01-30T10:20:42;97881.28;;;1.24;74.53
9281;BME280;4679;47.966;7.958;2023-01-30T10:22:57;97864.78;;;1.32;73.56
9281;BME280;4679;47.966;7.958;2023-01-30T10:25:09;97865.13;;;1.37;73.46
9281;BME280;4679;47.966;7.958;2023-01-30T10:27:15;97877.03;;;1.39;73.54
9281;BME280;4679;47.966;7.958;2023-01-30T10:29:20;97845.31;;;1.42;73.42
9281;BME280;4679;47.966;7.958;2023-01-30T10:31:27;97825.06;;;1.45;74.07
9281;BME280;4679;47.966;7.958;2023-01-30T10:33:34;97815.09;;;1.48;73.44
9281;BME280;4679;47.966;7.958;2023-01-30T10:35:38;97822.59;;;1.51;73.69
9281;BME280;4679;47.966;7.958;2023-01-30T10:37:47;97824.84;;;1.54;74.03
9281;BME280;4679;47.966;7.958;2023-01-30T10:39:55;97825.03;;;1.53;73.72
9281;BME280;4679;47.966;7.958;2023-01-30T10:42:05;97819.97;;;1.51;74.19
9281;BME280;4679;47.966;7.958;2023-01-30T10:44:10;97810.34;;;1.52;73.66
9281;BME280;4679;47.966;7.958;2023-01-30T10:46:21;97817.97;;;1.53;73.33
9281;BME280;4679;47.966;7.958;2023-01-30T10:50:57;97808.81;;;1.57;73.92
9281;BME280;4679;47.966;7.958;2023-01-30T10:53:05;97801.47;;;1.61;73.55
9281;BME280;4679;47.966;7.958;2023-01-30T10:55:29;97804.56;;;1.64;73.49
9281;BME280;4679;47.966;7.958;2023-01-30T10:57:42;97783.75;;;1.71;73.92
9281;BME280;4679;47.966;7.958;2023-01-30T10:59:52;97780.94;;;1.81;73.23
9281;BME280;4679;47.966;7.958;2023-01-30T11:02:05;97783.34;;;1.90;72.70
9281;BME280;4679;47.966;7.958;2023-01-30T11:04:22;97770.72;;;1.94;72.76
9281;BME280;4679;47.966;7.958;2023-01-30T11:06:25;97766.66;;;1.91;73.40
9281;BME280;4679;47.966;7.958;2023-01-30T11:08:30;97761.25;;;1.93;72.62
9281;BME280;4679;47.966;7.958;2023-01-30T11:10:32;97757.47;;;1.95;72.85
9281;BME280;4679;47.966;7.958;2023-01-30T11:12:35;97745.66;;;1.99;72.77
9281;BME280;4679;47.966;7.958;2023-01-30T11:14:53;97739.44;;;2.00;72.77
9281;BME280;4679;47.966;7.958;2023-01-30T11:16:57;97728.63;;;2.03;72.73
9281;BME280;4679;47.966;7.958;2023-01-30T11:19:03;97740.03;;;2.10;73.40
9281;BME280;4679;47.966;7.958;2023-01-30T11:21:09;97742.75;;;2.17;72.52
9281;BME280;4679;47.966;7.958;2023-01-30T11:23:24;97740.25;;;2.24;72.36
9281;BME280;4679;47.966;7.958;2023-01-30T11:25:26;97729.63;;;2.25;72.39
9281;BME280;4679;47.966;7.958;2023-01-30T11:27:30;97712.91;;;2.26;72.15
9281;BME280;4679;47.966;7.958;2023-01-30T11:29:32;97717.50;;;2.24;72.26
9281;BME280;4679;47.966;7.958;2023-01-30T11:31:38;97712.91;;;2.26;72.61
9281;BME280;4679;47.966;7.958;2023-01-30T11:33:40;97701.91;;;2.31;72.14
9281;BME280;4679;47.966;7.958;2023-01-30T11:35:51;97701.50;;;2.42;72.57
9281;BME280;4679;47.966;7.958;2023-01-30T11:38:11;97698.44;;;2.53;72.27
9281;BME280;4679;47.966;7.958;2023-01-30T11:40:21;97692.94;;;2.63;72.04
9281;BME280;4679;47.966;7.958;2023-01-30T11:42:29;97701.19;;;2.74;71.62
9281;BME280;4679;47.966;7.958;2023-01-30T11:44:33;97697.66;;;2.82;71.94
9281;BME280;4679;47.966;7.958;2023-01-30T11:46:37;97690.88;;;2.88;71.72
9281;BME280;4679;47.966;7.958;2023-01-30T11:48:44;97687.69;;;2.92;71.67
9281;BME280;4679;47.966;7.958;2023-01-30T11:50:49;97684.38;;;2.98;71.44
9281;BME280;4679;47.966;7.958;2023-01-30T11:53:01;97672.34;;;3.04;71.26
9281;BME280;4679;47.966;7.958;2023-01-30T11:55:09;97658.13;;;3.13;71.44
9281;BME280;4679;47.966;7.958;2023-01-30T11:57:15;97660.09;;;3.26;71.30
9281;BME280;4679;47.966;7.958;2023-01-30T11:59:23;97667.13;;;3.40;70.99
9281;BME280;4679;47.966;7.958;2023-01-30T12:01:27;97660.97;;;3.47;70.66
9281;BME280;4679;47.966;7.958;2023-01-30T12:03:29;97657.78;;;3.52;70.56
9281;BME280;4679;47.966;7.958;2023-01-30T12:05:35;97661.84;;;3.54;70.49
9281;BME280;4679;47.966;7.958;2023-01-30T12:07:44;97656.78;;;3.53;70.48
9281;BME280;4679;47.966;7.958;2023-01-30T12:09:48;97654.97;;;3.53;70.69
9281;BME280;4679;47.966;7.958;2023-01-30T12:11:51;97666.91;;;3.56;70.40
9281;BME280;4679;47.966;7.958;2023-01-30T12:13:54;97676.22;;;3.59;70.41
9281;BME280;4679;47.966;7.958;2023-01-30T12:16:09;97669.59;;;3.63;70.26
9281;BME280;4679;47.966;7.958;2023-01-30T12:18:18;97669.25;;;3.66;70.42
9281;BME280;4679;47.966;7.958;2023-01-30T12:20:27;97668.44;;;3.65;70.28
9281;BME280;4679;47.966;7.958;2023-01-30T12:22:34;97661.38;;;3.66;70.26
9281;BME280;4679;47.966;7.958;2023-01-30T12:24:43;97667.63;;;3.65;70.17
9281;BME280;4679;47.966;7.958;2023-01-30T12:27:47;97686.94;;;3.78;69.97
9281;BME280;4679;47.966;7.958;2023-01-30T12:29:58;97689.75;;;3.77;69.75
9281;BME280;4679;47.966;7.958;2023-01-30T12:32:07;97694.19;;;3.76;70.01
9281;BME280;4679;47.966;7.958;2023-01-30T12:34:11;97693.19;;;3.77;70.03
9281;BME280;4679;47.966;7.958;2023-01-30T12:36:22;97693.63;;;3.81;69.94
9281;BME280;4679;47.966;7.958;2023-01-30T12:38:39;97683.53;;;3.84;69.96
9281;BME280;4679;47.966;7.958;2023-01-30T12:40:50;97683.19;;;3.87;69.90
9281;BME280;4679;47.966;7.958;2023-01-30T12:43:28;97686.88;;;3.93;69.88
9281;BME280;4679;47.966;7.958;2023-01-30T12:45:36;97666.09;;;3.98;69.53
9281;BME280;4679;47.966;7.958;2023-01-30T12:48:04;97665.38;;;4.04;69.56
9281;BME280;4679;47.966;7.958;2023-01-30T12:50:18;97659.75;;;4.07;69.59
9281;BME280;4679;47.966;7.958;2023-01-30T12:52:33;97668.06;;;4.11;69.42
9281;BME280;4679;47.966;7.958;2023-01-30T12:54:48;97674.34;;;4.16;69.42
9281;BME280;4679;47.966;7.958;2023-01-30T12:57:00;97660.09;;;4.26;69.25
9281;BME280;4679;47.966;7.958;2023-01-30T12:59:10;97651.81;;;4.29;68.90
9281;BME280;4679;47.966;7.958;2023-01-30T13:01:19;97663.94;;;4.30;68.95
9281;BME280;4679;47.966;7.958;2023-01-30T13:03:34;97656.50;;;4.33;68.79
9281;BME280;4679;47.966;7.958;2023-01-30T13:05:41;97655.31;;;4.36;69.13
9281;BME280;4679;47.966;7.958;2023-01-30T13:10:11;97650.50;;;4.39;69.03
9281;BME280;4679;47.966;7.958;2023-01-30T13:12:22;97637.84;;;4.49;68.83
9281;BME280;4679;47.966;7.958;2023-01-30T13:14:34;97643.78;;;4.58;68.45
9281;BME280;4679;47.966;7.958;2023-01-30T13:16:47;97651.03;;;4.56;68.70
9281;BME280;4679;47.966;7.958;2023-01-30T13:18:55;97651.78;;;4.50;68.59
9281;BME280;4679;47.966;7.958;2023-01-30T13:21:06;97636.59;;;4.45;69.12
9281;BME280;4679;47.966;7.958;2023-01-30T13:23:16;97646.28;;;4.45;68.92
9281;BME280;4679;47.966;7.958;2023-01-30T13:25:25;97642.84;;;4.44;69.11
9281;BME280;4679;47.966;7.958;2023-01-30T13:27:33;97649.09;;;4.43;69.16
9281;BME280;4679;47.966;7.958;2023-01-30T13:29:40;97643.06;;;4.43;69.15
9281;BME280;4679;47.966;7.958;2023-01-30T13:31:51;97644.25;;;4.40;69.33
9281;BME280;4679;47.966;7.958;2023-01-30T13:34:02;97641.81;;;4.39;69.18
9281;BME280;4679;47.966;7.958;2023-01-30T13:36:10;97630.88;;;4.35;68.96
9281;BME280;4679;47.966;7.958;2023-01-30T13:38:17;97636.06;;;4.29;69.25
9281;BME280;4679;47.966;7.958;2023-01-30T13:40:24;97640.72;;;4.27;69.42
9281;BME280;4679;47.966;7.958;2023-01-30T13:42:31;97643.72;;;4.23;69.51
9281;BME280;4679;47.966;7.958;2023-01-30T13:44:41;97646.16;;;4.25;69.38
9281;BME280;4679;47.966;7.958;2023-01-30T13:46:43;97650.97;;;4.21;69.61
9281;BME280;4679;47.966;7.958;2023-01-30T13:48:55;97639.22;;;4.17;69.67
9281;BME280;4679;47.966;7.958;2023-01-30T13:51:25;97648.69;;;4.12;69.64
9281;BME280;4679;47.966;7.958;2023-01-30T13:53:33;97650.69;;;4.10;69.96
9281;BME280;4679;47.966;7.958;2023-01-30T13:55:46;97648.25;;;4.08;70.14
9281;BME280;4679;47.966;7.958;2023-01-30T13:57:54;97655.84;;;4.03;70.09
9281;BME280;4679;47.966;7.958;2023-01-30T14:00:21;97657.00;;;3.94;70.20
9281;BME280;4679;47.966;7.958;2023-01-30T14:02:27;97652.50;;;3.88;70.53
9281;BME280;4679;47.966;7.958;2023-01-30T14:04:46;97656.66;;;3.82;70.75
9281;BME280;4679;47.966;7.958;2023-01-30T14:06:48;97653.69;;;3.85;70.58
9281;BME280;4679;47.966;7.958;2023-01-30T14:08:52;97655.94;;;3.88;70.55
9281;BME280;4679;47.966;7.958;2023-01-30T14:10:58;97663.44;;;3.92;70.56
9281;BME280;4679;47.966;7.958;2023-01-30T14:13:04;97660.25;;;3.96;70.39
9281;BME280;4679;47.966;7.958;2023-01-30T14:15:23;97649.97;;;4.01;70.62
9281;BME280;4679;47.966;7.958;2023-01-30T14:17:25;97659.94;;;4.06;70.47
9281;BME280;4679;47.966;7.958;2023-01-30T14:19:36;97660.38;;;4.09;70.25
9281;BME280;4679;47.966;7.958;2023-01-30T14:21:53;97672.31;;;4.12;70.30
9281;BME280;4679;47.966;7.958;2023-01-30T14:23:56;97673.31;;;4.11;70.61
9281;BME280;4679;47.966;7.958;2023-01-30T14:25:59;97684.19;;;4.08;70.46
9281;BME280;4679;47.966;7.958;2023-01-30T14:30:53;97679.31;;;4.05;70.82
9281;BME280;4679;47.966;7.958;2023-01-30T14:32:56;97686.81;;;4.08;70.75
9281;BME280;4679;47.966;7.958;2023-01-30T14:35:19;97692.28;;;4.13;70.85
9281;BME280;4679;47.966;7.958;2023-01-30T14:38:06;97698.56;;;4.12;70.82
9281;BME280;4679;47.966;7.958;2023-01-30T14:40:25;97702.75;;;4.06;71.14
9281;BME280;4679;47.966;7.958;2023-01-30T14:42:29;97713.00;;;4.01;71.05
9281;BME280;4679;47.966;7.958;2023-01-30T14:47:17;97718.38;;;3.93;71.43
9281;BME280;4679;47.966;7.958;2023-01-30T14:49:32;97710.88;;;3.90;71.26
9281;BME280;4679;47.966;7.958;2023-01-30T14:51:41;97720.09;;;3.86;71.51
9281;BME280;4679;47.966;7.958;2023-01-30T14:53:49;97728.16;;;3.84;71.47
9281;BME280;4679;47.966;7.958;2023-01-30T14:55:59;97727.16;;;3.85;71.52
9281;BME280;4679;47.966;7.958;2023-01-30T14:58:02;97736.03;;;3.84;71.26
9281;BME280;4679;47.966;7.958;2023-01-30T15:00:15;97729.56;;;3.80;71.62
9281;BME280;4679;47.966;7.958;2023-01-30T15:02:23;97729.91;;;3.77;71.58
9281;BME280;4679;47.966;7.958;2023-01-30T15:04:29;97730.09;;;3.76;71.63
9281;BME280;4679;47.966;7.958;2023-01-30T15:06:34;97739.25;;;3.80;71.74
9281;BME280;4679;47.966;7.958;2023-01-30T15:08:40;97743.50;;;3.81;71.43
9281;BME280;4679;47.966;7.958;2023-01-30T15:10:57;97751.16;;;3.82;71.87
9281;BME280;4679;47.966;7.958;2023-01-30T15:13:35;97746.13;;;3.81;71.54
9281;BME280;4679;47.966;7.958;2023-01-30T15:15:45;97752.38;;;3.80;71.61
9281;BME280;4679;47.966;7.958;2023-01-30T15:18:11;97762.03;;;3.79;71.70
9281;BME280;4679;47.966;7.958;2023-01-30T15:20:25;97776.59;;;3.82;71.75
9281;BME280;4679;47.966;7.958;2023-01-30T15:22:35;97773.19;;;3.81;71.64
9281;BME280;4679;47.966;7.958;2023-01-30T15:27:14;97789.72;;;3.82;71.94
9281;BME280;4679;47.966;7.958;2023-01-30T15:29:33;97791.97;;;3.85;71.69
9281;BME280;4679;47.966;7.958;2023-01-30T15:31:52;97792.97;;;3.84;71.58
9281;BME280;4679;47.966;7.958;2023-01-30T15:33:55;97790.53;;;3.82;71.78
9281;BME280;4679;47.966;7.958;2023-01-30T15:35:57;97804.03;;;3.79;71.90
9281;BME280;4679;47.966;7.958;2023-01-30T15:37:59;97797.53;;;3.75;71.98
9281;BME280;4679;47.966;7.958;2023-01-30T15:40:17;97808.56;;;3.71;72.01
9281;BME280;4679;47.966;7.958;2023-01-30T15:42:19;97811.38;;;3.69;72.08
9281;BME280;4679;47.966;7.958;2023-01-30T15:44:41;97815.38;;;3.65;72.46
9281;BME280;4679;47.966;7.958;2023-01-30T15:46:48;97813.91;;;3.63;72.33
9281;BME280;4679;47.966;7.958;2023-01-30T15:49:10;97808.56;;;3.56;72.33
9281;BME280;4679;47.966;7.958;2023-01-30T15:51:21;97815.38;;;3.50;72.96
9281;BME280;4679;47.966;7.958;2023-01-30T15:53:28;97805.41;;;3.46;72.75
9281;BME280;4679;47.966;7.958;2023-01-30T15:55:33;97814.09;;;3.46;72.80
9281;BME280;4679;47.966;7.958;2023-01-30T15:57:37;97815.75;;;3.47;72.67
9281;BME280;4679;47.966;7.958;2023-01-30T15:59:40;97825.94;;;3.42;72.59
9281;BME280;4679;47.966;7.958;2023-01-30T16:01:42;97830.91;;;3.37;72.71
9281;BME280;4679;47.966;7.958;2023-01-30T16:03:43;97829.66;;;3.33;73.32
9281;BME280;4679;47.966;7.958;2023-01-30T16:05:47;97831.72;;;3.23;73.27
9281;BME280;4679;47.966;7.958;2023-01-30T16:07:50;97839.66;;;3.15;73.59
9281;BME280;4679;47.966;7.958;2023-01-30T16:09:55;97844.44;;;3.11;73.51
9281;BME280;4679;47.966;7.958;2023-01-30T16:11:57;97855.13;;;3.10;73.68
9281;BME280;4679;47.966;7.958;2023-01-30T16:13:59;97853.66;;;3.07;73.68
9281;BME280;4679;47.966;7.958;2023-01-30T16:16:03;97857.09;;;3.08;73.88
9281;BME280;4679;47.966;7.958;2023-01-30T16:18:20;97853.47;;;3.09;73.62
9281;BME280;4679;47.966;7.958;2023-01-30T16:20:25;97864.97;;;3.08;73.63
9281;BME280;4679;47.966;7.958;2023-01-30T16:22:32;97868.56;;;3.07;73.95
9281;BME280;4679;47.966;7.958;2023-01-30T16:24:35;97871.09;;;3.00;74.05
9281;BME280;4679;47.966;7.958;2023-01-30T16:26:40;97874.88;;;2.98;74.06
9281;BME280;4679;47.966;7.958;2023-01-30T16:28:43;97870.63;;;2.97;74.13
9281;BME280;4679;47.966;7.958;2023-01-30T16:30:45;97882.09;;;2.96;74.22
9281;BME280;4679;47.966;7.958;2023-01-30T16:32:47;97886.72;;;2.94;73.55
9281;BME280;4679;47.966;7.958;2023-01-30T16:34:49;97896.19;;;2.95;74.14
9281;BME280;4679;47.966;7.958;2023-01-30T16:36:50;97890.16;;;2.94;74.22
9281;BME280;4679;47.966;7.958;2023-01-30T16:38:54;97879.66;;;2.94;74.04
9281;BME280;4679;47.966;7.958;2023-01-30T16:40:55;97883.91;;;2.95;74.08
9281;BME280;4679;47.966;7.958;2023-01-30T16:42:59;97878.50;;;2.97;74.19
9281;BME280;4679;47.966;7.958;2023-01-30T16:48:22;97892.25;;;2.99;74.10
9281;BME280;4679;47.966;7.958;2023-01-30T16:50:30;97901.28;;;2.96;74.74
9281;BME280;4679;47.966;7.958;2023-01-30T16:52:33;97902.25;;;2.95;74.24
9281;BME280;4679;47.966;7.958;2023-01-30T16:54:37;97912.75;;;2.95;74.65
9281;BME280;4679;47.966;7.958;2023-01-30T16:56:45;97918.16;;;2.94;74.50
9281;BME280;4679;47.966;7.958;2023-01-30T16:58:51;97920.13;;;2.92;74.28
9281;BME280;4679;47.966;7.958;2023-01-30T17:00:53;97915.88;;;2.91;74.65
9281;BME280;4679;47.966;7.958;2023-01-30T17:02:57;97916.69;;;2.91;74.44
9281;BME280;4679;47.966;7.958;2023-01-30T17:05:17;97919.31;;;2.91;74.40
9281;BME280;4679;47.966;7.958;2023-01-30T17:07:33;97925.03;;;2.95;74.32
9281;BME280;4679;47.966;7.958;2023-01-30T17:09:42;97940.13;;;2.93;74.46
9281;BME280;4679;47.966;7.958;2023-01-30T17:11:45;97941.16;;;2.83;74.66
9281;BME280;4679;47.966;7.958;2023-01-30T17:13:47;97941.22;;;2.75;74.87
9281;BME280;4679;47.966;7.958;2023-01-30T17:15:48;97945.03;;;2.73;75.16
9281;BME280;4679;47.966;7.958;2023-01-30T17:17:50;97951.06;;;2.73;75.02
9281;BME280;4679;47.966;7.958;2023-01-30T17:19:51;97947.63;;;2.73;74.74
9281;BME280;4679;47.966;7.958;2023-01-30T17:21:55;97950.59;;;2.70;75.55
9281;BME280;4679;47.966;7.958;2023-01-30T17:24:00;97952.56;;;2.68;75.34
9281;BME280;4679;47.966;7.958;2023-01-30T17:26:02;97949.47;;;2.64;75.37
9281;BME280;4679;47.966;7.958;2023-01-30T17:28:05;97958.66;;;2.60;75.24
9281;BME280;4679;47.966;7.958;2023-01-30T17:32:14;97957.41;;;2.56;75.51
9281;BME280;4679;47.966;7.958;2023-01-30T17:34:16;97951.16;;;2.57;75.47
9281;BME280;4679;47.966;7.958;2023-01-30T17:36:20;97960.50;;;2.60;75.51
9281;BME280;4679;47.966;7.958;2023-01-30T17:38:24;97958.31;;;2.63;75.71
9281;BME280;4679;47.966;7.958;2023-01-30T17:40:30;97959.63;;;2.67;75.51
9281;BME280;4679;47.966;7.958;2023-01-30T17:42:33;97968.28;;;2.68;76.17
9281;BME280;4679;47.966;7.958;2023-01-30T17:44:34;97973.69;;;2.66;76.17
9281;BME280;4679;47.966;7.958;2023-01-30T17:46:38;97982.22;;;2.68;75.59
9281;BME280;4679;47.966;7.958;2023-01-30T17:48:41;97977.78;;;2.69;75.68
9281;BME280;4679;47.966;7.958;2023-01-30T17:50:43;97970.91;;;2.68;75.59
9281;BME280;4679;47.966;7.958;2023-01-30T17:52:45;97969.44;;;2.65;75.74
9281;BME280;4679;47.966;7.958;2023-01-30T17:54:48;97982.22;;;2.68;75.49
9281;BME280;4679;47.966;7.958;2023-01-30T17:56:51;97985.81;;;2.67;76.32
9281;BME280;4679;47.966;7.958;2023-01-30T17:58:54;97998.25;;;2.65;76.43
9281;BME280;4679;47.966;7.958;2023-01-30T18:00:55;98002.69;;;2.65;75.92
9281;BME280;4679;47.966;7.958;2023-01-30T18:02:57;98006.13;;;2.65;76.25
9281;BME280;4679;47.966;7.958;2023-01-30T18:04:58;98002.53;;;2.66;76.08
9281;BME280;4679;47.966;7.958;2023-01-30T18:07:02;98012.19;;;2.66;76.18
9281;BME280;4679;47.966;7.958;2023-01-30T18:09:05;97999.25;;;2.64;76.18
9281;BME280;4679;47.966;7.958;2023-01-30T18:11:09;98004.16;;;2.67;76.38
9281;BME280;4679;47.966;7.958;2023-01-30T18:13:11;98002.34;;;2.68;76.34
9281;BME280;4679;47.966;7.958;2023-01-30T18:15:13;98003.97;;;2.69;76.51
9281;BME280;4679;47.966;7.958;2023-01-30T18:17:16;97990.88;;;2.69;76.53
9281;BME280;4679;47.966;7.958;2023-01-30T18:19:17;97998.09;;;2.67;75.88
9281;BME280;4679;47.966;7.958;2023-01-30T18:21:23;98001.69;;;2.66;76.41
9281;BME280;4679;47.966;7.958;2023-01-30T18:23:25;98011.88;;;2.61;76.21
9281;BME280;4679;47.966;7.958;2023-01-30T18:25:26;98028.13;;;2.56;76.43
9281;BME280;4679;47.966;7.958;2023-01-30T18:27:29;98025.66;;;2.55;76.82
9281;BME280;4679;47.966;7.958;2023-01-30T18:29:31;98024.84;;;2.54;76.50
9281;BME280;4679;47.966;7.958;2023-01-30T18:31:33;98016.81;;;2.56;76.33
9281;BME280;4679;47.966;7.958;2023-01-30T18:33:34;98013.88;;;2.51;76.61
9281;BME280;4679;47.966;7.958;2023-01-30T18:35:36;98020.59;;;2.53;76.90
9281;BME280;4679;47.966;7.958;2023-01-30T18:37:38;98025.66;;;2.55;76.53
9281;BME280;4679;47.966;7.958;2023-01-30T18:39:40;98022.22;;;2.54;76.94
9281;BME280;4679;47.966;7.958;2023-01-30T18:41:41;98032.06;;;2.52;77.41
9281;BME280;4679;47.966;7.958;2023-01-30T18:43:45;98020.94;;;2.50;76.85
9281;BME280;4679;47.966;7.958;2023-01-30T18:45:48;98028.94;;;2.48;77.57
9281;BME280;4679;47.966;7.958;2023-01-30T18:47:50;98024.69;;;2.47;76.95
9281;BME280;4679;47.966;7.958;2023-01-30T18:49:52;98030.75;;;2.48;76.99
9281;BME280;4679;47.966;7.958;2023-01-30T18:51:54;98026.16;;;2.50;77.06
9281;BME280;4679;47.966;7.958;2023-01-30T18:53:57;98021.41;;;2.54;77.80
9281;BME280;4679;47.966;7.958;2023-01-30T18:55:58;98027.47;;;2.54;77.74
9281;BME280;4679;47.966;7.958;2023-01-30T18:58:00;98022.41;;;2.53;77.74
9281;BME280;4679;47.966;7.958;2023-01-30T19:00:04;98028.44;;;2.53;77.46